Time;durP1;ratioP1;P1;durP2;ratioP2;P2;SDS_P1;SDS_P2;PMS_P1;PMS_P2;Temp;Humidity;BMP_temperature;BMP_pressure;BME280_temperature;BME280_humidity;BME280_pressure;Samples;Min_cycle;Max_cycle;Signal;HPM_P1;HPM_P2
2023/08/26 00:02:27;;;;;;;20.82;11.93;;;;;;;17.85;68.45;100713.95;1685614;84;21366;-55
2023/08/26 00:05:34;;;;;;;22.70;12.23;;;;;;;17.81;68.70;100707.13;1687660;83;21374;-55
2023/08/26 00:08:40;;;;;;;22.67;11.83;;;;;;;17.81;68.82;100703.83;1686614;83;21389;-55
2023/08/26 00:11:45;;;;;;;24.07;12.53;;;;;;;17.80;68.87;100704.05;1687758;83;21397;-55
2023/08/26 00:14:51;;;;;;;19.65;12.05;;;;;;;17.80;69.00;100702.66;1686884;83;21411;-54
2023/08/26 00:17:57;;;;;;;19.60;10.40;;;;;;;17.78;69.08;100707.55;1680914;83;21322;-54
2023/08/26 00:21:04;;;;;;;15.95;10.43;;;;;;;17.77;69.13;100712.79;1705537;83;21375;-54
2023/08/26 00:24:11;;;;;;;21.42;12.03;;;;;;;17.71;69.07;100697.86;1723278;83;21412;-54
2023/08/26 00:27:16;;;;;;;15.83;10.10;;;;;;;17.66;69.11;100706.52;1702402;83;21401;-55
2023/08/26 00:30:24;;;;;;;14.60;9.93;;;;;;;17.61;69.13;100700.76;1691652;83;21947;-55
2023/08/26 00:33:30;;;;;;;18.37;10.45;;;;;;;17.56;69.11;100708.84;1680835;84;21789;-55
2023/08/26 00:36:37;;;;;;;18.45;11.35;;;;;;;17.52;69.14;100711.73;1686251;83;21351;-55
2023/08/26 00:39:42;;;;;;;17.42;11.35;;;;;;;17.46;69.21;100715.33;1687320;83;21425;-54
2023/08/26 00:42:49;;;;;;;25.70;13.78;;;;;;;17.43;69.38;100717.97;1685352;83;21811;-54
2023/08/26 00:45:56;;;;;;;21.60;13.90;;;;;;;17.41;69.47;100718.70;1700652;83;21252;-55
2023/08/26 00:49:02;;;;;;;20.37;12.47;;;;;;;17.38;69.52;100721.90;1712929;83;21228;-54
2023/08/26 00:52:09;;;;;;;20.70;11.28;;;;;;;17.32;69.59;100725.52;1712774;83;21414;-54
2023/08/26 00:55:16;;;;;;;15.38;10.82;;;;;;;17.28;69.68;100726.16;1712859;83;21394;-54
2023/08/26 00:58:22;;;;;;;19.77;11.00;;;;;;;17.23;69.72;100728.70;1712887;83;21892;-54
2023/08/26 01:01:27;;;;;;;14.03;10.45;;;;;;;17.19;69.84;100735.70;1689836;83;21410;-55
2023/08/26 01:04:34;;;;;;;14.15;10.32;;;;;;;17.17;69.97;100735.08;1712916;83;21366;-54
2023/08/26 01:07:39;;;;;;;16.40;9.48;;;;;;;17.15;70.07;100738.58;1712974;83;21374;-54
2023/08/26 01:11:31;;;;;;;13.28;9.08;;;;;;;17.15;70.20;100742.73;1712986;83;21430;-54
2023/08/26 01:14:44;;;;;;;13.90;8.30;;;;;;;17.13;70.27;100740.17;1712758;83;21359;-55
2023/08/26 01:17:50;;;;;;;11.88;8.75;;;;;;;17.08;70.30;100739.08;1713031;83;21357;-54
2023/08/26 01:20:56;;;;;;;12.40;8.35;;;;;;;17.05;70.43;100742.27;1713037;83;21374;-54
2023/08/26 01:24:04;;;;;;;13.90;8.73;;;;;;;17.05;70.63;100738.12;1712783;83;21825;-54
2023/08/26 01:27:11;;;;;;;15.20;8.85;;;;;;;17.00;70.57;100730.45;1706465;83;21358;-54
2023/08/26 01:30:18;;;;;;;13.28;8.90;;;;;;;16.97;70.55;100727.24;1712866;83;21791;-54
2023/08/26 01:33:29;;;;;;;11.90;8.55;;;;;;;16.95;70.64;100728.01;1712732;83;21398;-54
2023/08/26 01:36:34;;;;;;;10.98;8.30;;;;;;;16.95;70.78;100733.54;1715373;83;21409;-54
2023/08/26 01:39:40;;;;;;;13.05;8.58;;;;;;;16.95;70.79;100736.30;1712628;83;21875;-54
2023/08/26 01:42:49;;;;;;;13.65;9.63;;;;;;;16.95;70.78;100736.30;1712754;83;21382;-54
2023/08/26 01:45:54;;;;;;;11.18;8.35;;;;;;;16.91;70.80;100735.86;1715304;83;21296;-54
2023/08/26 01:48:59;;;;;;;10.80;8.70;;;;;;;16.90;70.94;100730.02;1717897;83;21271;-54
2023/08/26 01:52:04;;;;;;;13.68;8.25;;;;;;;16.90;71.03;100730.02;1717643;83;21243;-54
2023/08/26 01:55:09;;;;;;;12.80;9.00;;;;;;;16.95;71.13;100730.77;1715013;83;21219;-56
2023/08/26 01:58:16;;;;;;;11.22;8.78;;;;;;;16.96;71.11;100738.00;1709131;84;21951;-53
2023/08/26 02:01:22;;;;;;;13.22;8.48;;;;;;;16.99;71.30;100730.66;1709817;84;21366;-54
2023/08/26 02:04:28;;;;;;;12.90;9.05;;;;;;;17.05;71.54;100740.36;1709056;84;21386;-55
2023/08/26 02:07:34;;;;;;;12.15;8.10;;;;;;;17.09;71.60;100735.27;1709247;84;21385;-55
2023/08/26 02:10:40;;;;;;;16.93;9.25;;;;;;;17.11;71.57;100738.14;1709736;84;21358;-54
2023/08/26 02:13:48;;;;;;;11.35;8.45;;;;;;;17.13;71.61;100740.70;1707600;84;21423;-55
2023/08/26 02:16:55;;;;;;;10.55;8.20;;;;;;;17.13;71.62;100741.55;1709130;84;21405;-54
2023/08/26 02:20:02;;;;;;;12.45;8.20;;;;;;;17.14;71.64;100746.56;1709776;83;21413;-54
2023/08/26 02:23:09;;;;;;;14.47;9.60;;;;;;;17.13;71.63;100737.92;1710503;83;21401;-54
2023/08/26 02:26:14;;;;;;;14.80;8.45;;;;;;;17.13;71.67;100743.46;1709343;84;21397;-56
2023/08/26 02:29:20;;;;;;;11.70;9.00;;;;;;;17.09;71.64;100740.80;1709031;83;21382;-55
2023/08/26 02:32:26;;;;;;;15.23;8.90;;;;;;;17.05;71.63;100747.80;1709798;84;21382;-54
2023/08/26 02:35:32;;;;;;;10.78;8.48;;;;;;;17.01;71.63;100747.39;1709685;84;21962;-54
2023/08/26 02:38:38;;;;;;;13.78;8.73;;;;;;;17.00;71.71;100750.36;1709767;83;21374;-55
2023/08/26 02:41:44;;;;;;;14.90;9.33;;;;;;;16.96;71.67;100747.67;1709777;84;21390;-54
2023/08/26 02:44:51;;;;;;;14.07;8.95;;;;;;;16.91;71.64;100750.20;1709615;83;21425;-55
2023/08/26 02:47:57;;;;;;;11.30;8.83;;;;;;;16.89;71.83;100749.55;1707859;83;21419;-55
2023/08/26 02:51:07;;;;;;;13.35;9.13;;;;;;;16.90;72.00;100754.05;1703405;83;21366;-55
2023/08/26 02:54:12;;;;;;;13.58;9.25;;;;;;;16.91;72.08;100751.59;1705646;83;21377;-55
2023/08/26 02:57:20;;;;;;;14.38;9.03;;;;;;;16.85;72.02;100758.83;1698981;83;21876;-55
2023/08/26 03:00:26;;;;;;;15.95;8.65;;;;;;;16.83;72.10;100747.62;1712537;83;21791;-55
2023/08/26 03:03:32;;;;;;;13.03;8.20;;;;;;;16.80;72.09;100743.89;1706566;83;21898;-55
2023/08/26 03:06:39;;;;;;;13.60;9.70;;;;;;;16.76;72.07;100744.83;1723773;82;21246;-55
2023/08/26 03:09:45;;;;;;;13.55;9.55;;;;;;;16.75;72.08;100747.80;1695952;83;21927;-55
2023/08/26 03:12:52;;;;;;;16.55;9.78;;;;;;;16.72;72.11;100744.08;1686585;83;21233;-55
2023/08/26 03:15:59;;;;;;;13.18;9.25;;;;;;;16.71;72.16;100758.97;1717787;82;21350;-54
2023/08/26 03:19:05;;;;;;;14.33;10.08;;;;;;;16.71;72.31;100757.59;1645981;86;21382;-54
2023/08/26 03:22:11;;;;;;;17.45;9.75;;;;;;;16.74;72.50;100755.80;1673510;85;21405;-54
2023/08/26 03:25:17;;;;;;;13.30;9.50;;;;;;;16.74;72.58;100747.50;1705153;84;21386;-54
2023/08/26 03:28:18;;;;;;;20.68;10.10;;;;;;;16.75;72.62;100752.81;1687893;83;21243;-54
2023/08/26 03:31:26;;;;;;;15.53;9.40;;;;;;;16.74;72.66;100749.73;1705505;83;21909;-54
2023/08/26 03:34:32;;;;;;;15.13;9.68;;;;;;;16.73;72.65;100754.92;1705588;83;21606;-54
2023/08/26 03:37:39;;;;;;;19.10;10.82;;;;;;;16.71;72.65;100749.30;1705067;83;21355;-54
2023/08/26 03:40:48;;;;;;;17.50;11.55;;;;;;;16.72;72.77;100754.61;1704926;83;22023;-55
2023/08/26 03:43:54;;;;;;;22.60;12.55;;;;;;;16.74;72.82;100758.55;1707100;82;21212;-54
2023/08/26 03:46:59;;;;;;;19.15;13.25;;;;;;;16.76;72.95;100760.04;1693928;83;21242;-54
2023/08/26 03:50:06;;;;;;;19.25;11.88;;;;;;;16.83;73.06;100762.84;1708102;83;21214;-54
2023/08/26 03:53:12;;;;;;;18.25;12.45;;;;;;;16.88;73.11;100763.07;1718948;83;21260;-55
2023/08/26 03:56:18;;;;;;;20.88;12.90;;;;;;;16.93;73.16;100766.94;1720298;83;21389;-54
2023/08/26 03:59:24;;;;;;;22.30;12.18;;;;;;;17.00;73.23;100762.81;1719729;83;21369;-54
2023/08/26 04:02:30;;;;;;;18.42;12.23;;;;;;;17.06;73.28;100760.59;1708937;83;21322;-54
2023/08/26 04:05:36;;;;;;;15.50;10.88;;;;;;;17.11;73.39;100762.20;1720007;83;21374;-54
2023/08/26 04:08:43;;;;;;;20.72;11.57;;;;;;;17.18;73.51;100749.22;1735398;82;21377;-54
2023/08/26 04:11:50;;;;;;;20.70;13.00;;;;;;;17.24;73.55;100752.53;1742444;82;21401;-53
2023/08/26 04:14:55;;;;;;;27.27;20.97;;;;;;;17.29;73.60;100752.23;1745336;82;21864;-53
2023/08/26 04:18:03;;;;;;;41.40;26.87;;;;;;;17.37;73.71;100758.09;1745285;82;21226;-54
2023/08/26 04:21:09;;;;;;;37.95;27.27;;;;;;;17.45;73.78;100752.39;1748162;82;21247;-54
2023/08/26 04:24:15;;;;;;;28.87;18.85;;;;;;;17.55;73.90;100760.59;1747010;82;21226;-54
2023/08/26 04:27:20;;;;;;;29.25;19.70;;;;;;;17.65;73.95;100761.55;1725652;82;21588;-55
2023/08/26 04:30:25;;;;;;;30.12;20.48;;;;;;;17.74;74.02;100763.06;1747609;82;21219;-54
2023/08/26 04:33:32;;;;;;;35.92;18.32;;;;;;;17.84;74.08;100759.31;1747341;82;21286;-54
2023/08/26 04:36:38;;;;;;;37.38;20.12;;;;;;;17.91;74.10;100749.09;1747409;81;21211;-54
2023/08/26 04:39:44;;;;;;;29.57;18.27;;;;;;;17.99;74.10;100752.17;1747416;82;21717;-54
2023/08/26 04:42:52;;;;;;;24.60;15.60;;;;;;;18.06;74.16;100755.25;1747370;82;21192;-54
2023/08/26 04:45:58;;;;;;;16.23;11.88;;;;;;;18.15;74.20;100758.13;1747721;82;21220;-54
2023/08/26 04:49:06;;;;;;;13.38;9.53;;;;;;;18.24;74.26;100759.59;1720010;81;21267;-54
2023/08/26 04:52:11;;;;;;;15.03;8.98;;;;;;;18.34;74.36;100762.78;1708198;83;21228;-54
2023/08/26 04:55:18;;;;;;;11.57;9.05;;;;;;;18.45;74.41;100758.52;1710627;82;21225;-53
2023/08/26 04:58:23;;;;;;;25.40;19.07;;;;;;;18.53;74.41;100761.91;1671081;85;21249;-54
2023/08/26 05:01:30;;;;;;;16.27;12.25;;;;;;;18.62;74.46;100760.59;1649680;87;21930;-55
2023/08/26 05:04:37;;;;;;;13.98;9.35;;;;;;;18.72;74.51;100766.54;1650352;87;21868;-55
2023/08/26 05:07:43;;;;;;;13.75;8.90;;;;;;;18.83;74.54;100757.53;1651005;87;22309;-55
2023/08/26 05:10:50;;;;;;;14.45;8.75;;;;;;;18.94;74.57;100757.36;1672889;86;21216;-54
2023/08/26 05:13:55;;;;;;;14.33;9.03;;;;;;;19.00;74.45;100757.86;1672635;86;21812;-54
2023/08/26 05:17:01;;;;;;;14.05;8.63;;;;;;;19.08;74.51;100758.47;1672506;85;21861;-55
2023/08/26 05:20:08;;;;;;;15.70;9.53;;;;;;;19.18;74.58;100757.46;1672409;86;21204;-55
2023/08/26 05:23:14;;;;;;;16.97;8.63;;;;;;;19.27;74.61;100756.11;1672712;84;21247;-55
2023/08/26 05:26:18;;;;;;;12.10;8.85;;;;;;;19.37;74.65;100752.02;1649407;87;21235;-56
2023/08/26 05:29:25;;;;;;;12.82;8.90;;;;;;;19.47;74.73;100752.38;1672028;86;21331;-56
2023/08/26 05:32:33;;;;;;;11.68;8.78;;;;;;;19.56;74.75;100747.72;1672556;86;21244;-56
2023/08/26 05:35:39;;;;;;;11.03;8.38;;;;;;;19.65;74.76;100749.14;1672575;86;21213;-55
2023/08/26 05:38:45;;;;;;;14.03;7.75;;;;;;;19.74;74.78;100759.45;1672569;85;21212;-55
2023/08/26 05:41:50;;;;;;;12.30;8.83;;;;;;;19.81;74.77;100755.52;1672929;86;21591;-55
2023/08/26 05:44:56;;;;;;;11.53;8.80;;;;;;;19.90;74.82;100749.98;1672680;85;21240;-54
2023/08/26 05:48:03;;;;;;;13.20;8.20;;;;;;;20.01;74.86;100745.63;1667485;85;21251;-55
2023/08/26 05:51:09;;;;;;;14.43;8.43;;;;;;;20.12;74.93;100749.05;1672108;83;21622;-55
2023/08/26 05:54:10;;;;;;;12.03;8.75;;;;;;;20.23;74.96;100752.50;1672555;86;21271;-55
2023/08/26 05:57:16;;;;;;;12.98;8.85;;;;;;;20.34;74.97;100753.13;1707136;82;21887;-54
2023/08/26 06:00:26;;;;;;;15.40;8.68;;;;;;;20.45;74.97;100750.98;1716371;82;21737;-54
2023/08/26 06:03:33;;;;;;;12.85;9.13;;;;;;;20.55;75.00;100745.73;1708084;82;21219;-55
2023/08/26 06:06:39;;;;;;;14.60;9.33;;;;;;;20.65;75.03;100739.92;1686407;84;21209;-55
2023/08/26 06:09:44;;;;;;;16.67;9.10;;;;;;;20.78;75.04;100748.65;1702174;84;21904;-54
2023/08/26 06:12:50;;;;;;;13.05;9.05;;;;;;;20.89;75.02;100743.69;1715001;82;21590;-55
2023/08/26 06:16:03;;;;;;;11.60;8.33;;;;;;;21.01;75.00;100743.79;1700308;84;21367;-55
2023/08/26 06:19:10;;;;;;;14.10;8.30;;;;;;;21.15;74.99;100746.69;1672399;85;21256;-56
2023/08/26 06:22:15;;;;;;;12.90;8.48;;;;;;;21.26;74.92;100746.75;1676065;85;21374;-55
2023/08/26 06:25:21;;;;;;;12.85;8.58;;;;;;;21.39;74.92;100749.31;1674578;85;21229;-55
2023/08/26 06:28:28;;;;;;;14.23;8.38;;;;;;;21.51;74.88;100751.61;1674766;85;21279;-56
2023/08/26 06:31:33;;;;;;;15.93;9.05;;;;;;;21.63;74.84;100745.52;1671720;86;21209;-55
2023/08/26 06:34:38;;;;;;;14.60;8.35;;;;;;;21.75;74.79;100746.44;1664908;85;21248;-56
2023/08/26 06:37:44;;;;;;;13.72;8.63;;;;;;;21.86;74.75;100741.95;1613248;87;21348;-56
2023/08/26 06:40:51;;;;;;;11.15;8.23;;;;;;;21.96;74.71;100740.26;1714648;83;21298;-56
2023/08/26 06:43:57;;;;;;;12.65;8.63;;;;;;;22.09;74.66;100741.96;1715018;83;21302;-55
2023/08/26 06:47:06;;;;;;;13.00;8.13;;;;;;;22.19;74.60;100734.70;1652345;86;21756;-55
2023/08/26 06:50:16;;;;;;;18.10;7.78;;;;;;;22.32;74.52;100735.53;1714938;83;21223;-56
2023/08/26 06:53:23;;;;;;;10.75;7.75;;;;;;;22.44;74.43;100741.97;1702737;83;21235;-56
2023/08/26 06:56:30;;;;;;;12.75;7.62;;;;;;;22.55;74.34;100745.33;1645402;87;21457;-55
2023/08/26 06:59:36;;;;;;;11.38;7.80;;;;;;;22.69;74.26;100752.34;1705001;83;21239;-54
2023/08/26 07:02:43;;;;;;;12.00;8.10;;;;;;;22.82;74.16;100759.02;1645938;86;21384;-55
2023/08/26 07:05:54;;;;;;;9.45;6.87;;;;;;;22.93;74.06;100761.79;1704666;84;21243;-55
2023/08/26 07:09:01;;;;;;;11.88;7.22;;;;;;;23.08;73.97;100763.52;1645786;86;21434;-56
2023/08/26 07:12:07;;;;;;;13.30;6.70;;;;;;;23.20;73.81;100760.66;1705350;83;21835;-55
2023/08/26 07:15:13;;;;;;;10.03;6.08;;;;;;;23.35;73.72;100766.59;1646281;86;21212;-55
2023/08/26 07:18:19;;;;;;;10.85;6.28;;;;;;;23.48;73.58;100756.52;1709537;82;21224;-54
2023/08/26 07:21:25;;;;;;;11.70;7.17;;;;;;;23.64;73.46;100754.30;1680468;84;21990;-55
2023/08/26 07:24:31;;;;;;;9.90;6.87;;;;;;;23.80;73.30;100754.02;1688318;84;21220;-55
2023/08/26 07:27:38;;;;;;;11.50;6.92;;;;;;;23.96;73.13;100752.61;1665320;85;21437;-56
2023/08/26 07:30:44;;;;;;;11.35;7.15;;;;;;;24.13;72.95;100756.31;1712378;84;21382;-56
2023/08/26 07:33:52;;;;;;;9.53;6.65;;;;;;;24.31;72.83;100753.79;1712411;82;21378;-56
2023/08/26 07:36:57;;;;;;;9.00;5.33;;;;;;;24.44;72.58;100748.66;1706417;82;21192;-55
2023/08/26 07:40:09;;;;;;;9.68;5.08;;;;;;;24.57;72.35;100754.45;1707848;82;21363;-54
2023/08/26 07:43:14;;;;;;;9.63;6.28;;;;;;;24.66;72.06;100742.57;1685355;84;21441;-56
2023/08/26 07:46:22;;;;;;;8.75;5.17;;;;;;;24.73;71.78;100744.64;1725096;82;21380;-57
2023/08/26 07:49:29;;;;;;;7.92;5.30;;;;;;;24.77;71.65;100743.00;1668052;84;22189;-55
2023/08/26 07:52:34;;;;;;;8.60;5.25;;;;;;;24.84;71.51;100747.02;1706122;82;21207;-57
2023/08/26 07:55:41;;;;;;;7.97;5.30;;;;;;;24.88;71.25;100740.62;1714048;82;21380;-56
2023/08/26 07:58:48;;;;;;;9.38;4.75;;;;;;;24.92;71.03;100734.81;1721008;81;21396;-58
2023/08/26 08:01:56;;;;;;;7.37;4.42;;;;;;;24.97;70.87;100733.45;1735086;82;21357;-56
2023/08/26 08:05:03;;;;;;;5.60;4.62;;;;;;;25.02;70.68;100734.91;1735445;82;21923;-56
2023/08/26 08:08:08;;;;;;;7.85;4.50;;;;;;;25.08;70.44;100729.38;1745189;81;21538;-56
2023/08/26 08:11:13;;;;;;;9.95;4.75;;;;;;;25.12;70.21;100729.98;1735175;80;21502;-56
2023/08/26 08:14:18;;;;;;;12.53;5.00;;;;;;;25.17;70.06;100727.25;1718568;82;21229;-56
2023/08/26 08:17:24;;;;;;;6.58;4.00;;;;;;;25.23;69.82;100733.20;1682423;83;21319;-57
2023/08/26 08:20:31;;;;;;;9.98;4.95;;;;;;;25.29;69.58;100736.92;1732711;82;22026;-56
2023/08/26 08:23:38;;;;;;;7.05;4.65;;;;;;;25.33;69.33;100732.46;1673936;84;21777;-56
2023/08/26 08:26:43;;;;;;;9.55;4.25;;;;;;;25.38;69.10;100736.22;1661041;85;21276;-56
2023/08/26 08:29:50;;;;;;;6.35;4.25;;;;;;;25.43;68.85;100739.63;1718514;82;21215;-56
2023/08/26 08:32:56;;;;;;;7.40;4.17;;;;;;;25.47;68.59;100730.95;1721596;82;21275;-56
2023/08/26 08:36:03;;;;;;;10.78;4.58;;;;;;;25.53;68.31;100736.94;1737656;81;21992;-57
2023/08/26 08:39:09;;;;;;;7.90;4.42;;;;;;;25.57;68.04;100729.13;1709736;82;21859;-55
2023/08/26 08:42:18;;;;;;;5.92;3.33;;;;;;;25.64;67.82;100728.33;1732159;81;21239;-55
2023/08/26 08:45:23;;;;;;;7.55;3.72;;;;;;;25.71;67.56;100723.91;1718700;83;21772;-56
2023/08/26 08:48:32;;;;;;;10.68;9.15;;;;;;;25.77;67.28;100719.48;1719276;83;21353;-55
2023/08/26 08:51:36;;;;;;;8.80;4.33;;;;;;;25.86;67.03;100724.06;1748045;82;21287;-54
2023/08/26 08:54:41;;;;;;;7.92;4.00;;;;;;;25.94;66.72;100723.56;1747660;82;21785;-55
2023/08/26 08:57:49;;;;;;;8.23;4.40;;;;;;;26.00;66.45;100719.72;1687032;84;21235;-54
2023/08/26 09:00:57;;;;;;;7.47;4.20;;;;;;;26.07;66.19;100713.30;1697134;84;21204;-56
2023/08/26 09:04:04;;;;;;;6.20;3.87;;;;;;;26.13;65.86;100719.27;1742302;81;21254;-56
2023/08/26 09:07:14;;;;;;;8.18;4.45;;;;;;;26.19;65.57;100709.75;1720123;82;21240;-59
2023/08/26 09:10:19;;;;;;;8.00;4.20;;;;;;;26.27;65.38;100705.04;1732534;82;21207;-55
2023/08/26 09:13:23;;;;;;;8.40;3.27;;;;;;;26.35;65.13;100700.32;1678070;85;21231;-55
2023/08/26 09:16:37;;;;;;;6.00;3.90;;;;;;;26.41;64.74;100695.02;1747193;82;21319;-55
2023/08/26 09:19:43;;;;;;;11.12;4.33;;;;;;;26.48;64.36;100691.42;1749307;82;21207;-56
2023/08/26 09:22:50;;;;;;;6.33;3.67;;;;;;;26.56;64.17;100692.27;1719376;83;21839;-54
2023/08/26 09:26:03;;;;;;;6.95;3.75;;;;;;;26.63;63.85;100688.67;1726188;82;21876;-53
2023/08/26 09:29:08;;;;;;;10.23;3.90;;;;;;;26.71;63.61;100688.18;1742565;82;21486;-54
2023/08/26 09:32:15;;;;;;;7.00;3.45;;;;;;;26.79;63.32;100685.39;1742012;82;21211;-53
2023/08/26 09:35:26;;;;;;;6.55;3.75;;;;;;;26.87;63.01;100684.31;1670220;85;21284;-54
2023/08/26 09:38:33;;;;;;;5.25;3.62;;;;;;;26.93;62.74;100683.21;1744004;81;21389;-55
2023/08/26 09:41:40;;;;;;;9.00;3.40;;;;;;;27.00;62.49;100679.59;1694053;83;21219;-54
2023/08/26 09:44:47;;;;;;;7.55;3.87;;;;;;;27.08;62.13;100679.06;1733636;82;21222;-55
2023/08/26 09:47:56;;;;;;;7.12;3.85;;;;;;;27.17;61.83;100683.55;1670472;84;21644;-55
2023/08/26 09:51:03;;;;;;;7.97;3.87;;;;;;;27.26;61.54;100679.07;1731839;82;21203;-54
2023/08/26 09:54:10;;;;;;;6.05;3.10;;;;;;;27.26;61.29;100680.48;1709230;82;21231;-55
2023/08/26 09:57:17;;;;;;;5.20;3.30;;;;;;;27.32;61.00;100681.65;1709565;82;21845;-54
2023/08/26 10:00:24;;;;;;;10.15;5.12;;;;;;;27.42;60.69;100681.67;1716560;82;21231;-56
2023/08/26 10:03:31;;;;;;;11.15;4.92;;;;;;;27.52;60.32;100680.30;1716306;82;21208;-55
2023/08/26 10:06:37;;;;;;;27.05;5.72;;;;;;;27.62;59.99;100681.69;1718445;82;21299;-54
2023/08/26 10:09:59;;;;;;;10.70;3.05;;;;;;;27.73;59.71;100681.15;1706420;82;21362;-55
2023/08/26 10:13:08;;;;;;;8.10;3.15;;;;;;;27.80;59.26;100677.47;1714467;83;21247;-55
2023/08/26 10:16:18;;;;;;;5.25;3.00;;;;;;;27.80;58.84;100663.41;1732342;82;21251;-55
2023/08/26 10:19:25;;;;;;;9.70;4.03;;;;;;;27.85;58.49;100657.77;1711337;82;21231;-54
2023/08/26 10:22:33;;;;;;;5.05;2.87;;;;;;;27.97;58.25;100663.16;1708511;83;21379;-55
2023/08/26 10:25:39;;;;;;;6.42;3.17;;;;;;;28.13;58.05;100654.38;1701873;83;21370;-54
2023/08/26 10:28:47;;;;;;;17.67;4.00;;;;;;;28.26;57.60;100663.66;1703731;84;21935;-54
2023/08/26 10:31:52;;;;;;;8.28;3.33;;;;;;;28.33;57.10;100665.62;1728141;82;21250;-54
2023/08/26 10:35:06;;;;;;;23.80;7.28;;;;;;;28.28;56.73;100650.70;1738517;82;21366;-54
2023/08/26 10:38:20;;;;;;;8.23;3.22;;;;;;;28.41;56.51;100652.92;1666463;84;21231;-55
2023/08/26 10:41:25;;;;;;;11.75;3.20;;;;;;;28.53;56.13;100645.86;1692436;83;21326;-55
2023/08/26 10:44:45;;;;;;;8.05;3.42;;;;;;;28.65;55.73;100645.55;1712112;83;21253;-55
2023/08/26 10:47:51;;;;;;;27.32;4.80;;;;;;;28.76;55.39;100643.81;1691920;83;21206;-52
2023/08/26 10:51:08;;;;;;;10.32;4.05;;;;;;;28.80;55.00;100633.63;1690110;83;21205;-55
2023/08/26 10:54:16;;;;;;;11.20;3.47;;;;;;;28.68;54.54;100630.31;1705905;84;21229;-54
2023/08/26 10:57:22;;;;;;;18.02;3.80;;;;;;;28.52;53.46;100627.84;1721641;82;21254;-54
2023/08/26 11:00:29;;;;;;;10.90;4.70;;;;;;;28.52;53.46;100627.84;1695002;83;21212;-55
2023/08/26 11:03:37;;;;;;;7.28;3.72;;;;;;;28.65;53.75;100622.45;1705106;83;21393;-54
2023/08/26 11:06:45;;;;;;;5.22;3.05;;;;;;;28.84;53.52;100629.67;1704300;84;21638;-54
2023/08/26 11:09:53;;;;;;;6.50;3.20;;;;;;;28.99;53.24;100637.47;1705433;82;21816;-55
2023/08/26 11:12:58;;;;;;;5.28;3.50;;;;;;;29.23;52.46;100620.70;1707511;82;21211;-55
2023/08/26 11:16:05;;;;;;;6.72;3.50;;;;;;;29.23;52.46;100620.70;1706599;84;21218;-55
2023/08/26 11:19:14;;;;;;;6.42;3.10;;;;;;;29.27;52.23;100628.88;1724738;82;21398;-55
2023/08/26 11:22:20;;;;;;;8.00;3.17;;;;;;;29.22;51.73;100627.50;1709810;82;21792;-56
2023/08/26 11:25:26;;;;;;;6.42;3.58;;;;;;;29.32;51.60;100616.12;1707204;83;21239;-56
2023/08/26 11:28:33;;;;;;;6.72;3.72;;;;;;;29.46;51.36;100619.98;1708088;82;21375;-55
2023/08/26 11:31:39;;;;;;;6.90;3.65;;;;;;;29.60;51.09;100616.76;1689202;84;21235;-56
2023/08/26 11:34:48;;;;;;;4.67;3.10;;;;;;;29.77;50.78;100621.43;1708805;82;21260;-55
2023/08/26 11:37:56;;;;;;;4.87;3.20;;;;;;;29.87;50.34;100622.75;1679440;85;21223;-55
2023/08/26 11:41:04;;;;;;;5.78;3.45;;;;;;;29.88;49.84;100623.58;1705127;83;21337;-57
2023/08/26 11:44:14;;;;;;;5.30;3.05;;;;;;;29.80;49.39;100618.57;1710955;82;21772;-54
2023/08/26 11:47:22;;;;;;;7.22;3.45;;;;;;;29.76;49.09;100616.08;1718355;82;21737;-56
2023/08/26 11:50:27;;;;;;;7.60;3.50;;;;;;;29.79;48.86;100624.80;1733286;82;21363;-56
2023/08/26 11:53:33;;;;;;;6.72;3.50;;;;;;;29.87;48.66;100621.34;1733070;82;21959;-56
2023/08/26 11:56:38;;;;;;;6.65;3.83;;;;;;;29.92;48.35;100612.80;1673332;85;21224;-55
2023/08/26 11:59:46;;;;;;;6.22;3.67;;;;;;;29.96;48.03;100611.08;1656230;85;21216;-56
2023/08/26 12:02:58;;;;;;;7.78;3.98;;;;;;;29.99;47.71;100613.30;1676708;85;21291;-57
2023/08/26 12:06:04;;;;;;;7.30;3.58;;;;;;;30.09;47.47;100612.35;1677193;85;21260;-56
2023/08/26 12:09:12;;;;;;;5.33;3.52;;;;;;;30.14;47.31;100610.89;1675752;85;21272;-57
2023/08/26 12:12:18;;;;;;;5.75;3.50;;;;;;;30.20;47.02;100609.13;1676953;85;21221;-56
2023/08/26 12:15:24;;;;;;;7.00;3.80;;;;;;;30.26;46.84;100608.52;1677538;85;21259;-56
2023/08/26 12:18:30;;;;;;;5.28;3.47;;;;;;;30.40;46.69;100601.84;1677431;85;21222;-56
2023/08/26 12:21:39;;;;;;;9.23;5.37;;;;;;;30.52;46.44;100605.67;1677087;85;21204;-57
2023/08/26 12:24:46;;;;;;;6.62;3.90;;;;;;;30.56;46.17;100594.02;1677107;84;21212;-56
2023/08/26 12:27:53;;;;;;;4.30;3.35;;;;;;;30.60;45.88;100598.75;1677377;85;21244;-57
2023/08/26 12:30:59;;;;;;;4.83;3.22;;;;;;;30.60;45.58;100599.34;1684917;82;21334;-55
2023/08/26 12:34:04;;;;;;;4.12;3.10;;;;;;;30.58;45.31;100588.34;1716295;83;21377;-55
2023/08/26 12:37:13;;;;;;;8.80;3.92;;;;;;;30.57;45.06;100589.47;1715428;83;21883;-55
2023/08/26 12:40:20;;;;;;;5.37;3.60;;;;;;;30.60;44.81;100590.88;1715572;83;21364;-55
2023/08/26 12:43:28;;;;;;;10.18;5.50;;;;;;;30.58;44.56;100588.91;1715660;83;21340;-55
2023/08/26 12:46:36;;;;;;;6.00;4.35;;;;;;;30.58;44.36;100591.17;1688767;84;21262;-54
2023/08/26 12:49:42;;;;;;;7.05;3.72;;;;;;;30.63;44.26;100589.70;1688274;85;21235;-55
2023/08/26 12:52:48;;;;;;;7.42;3.80;;;;;;;30.67;44.13;100587.08;1688074;85;21238;-56
2023/08/26 12:55:54;;;;;;;7.08;3.47;;;;;;;30.69;43.93;100581.97;1687788;84;21222;-56
2023/08/26 12:58:59;;;;;;;6.72;3.47;;;;;;;30.72;43.73;100586.16;1668985;85;21232;-55
2023/08/26 13:02:05;;;;;;;4.37;3.17;;;;;;;30.73;43.52;100592.96;1682330;84;21543;-55
2023/08/26 13:05:16;;;;;;;7.95;3.02;;;;;;;30.72;43.33;100587.58;1681046;85;21251;-55
2023/08/26 13:08:21;;;;;;;7.42;3.55;;;;;;;30.70;43.16;100577.98;1643932;86;21235;-55
2023/08/26 13:11:27;;;;;;;6.12;3.50;;;;;;;30.70;43.03;100579.41;1650921;87;21366;-55
2023/08/26 13:14:32;;;;;;;5.92;3.42;;;;;;;30.74;42.91;100578.23;1642617;87;21239;-56
2023/08/26 13:17:38;;;;;;;7.60;3.55;;;;;;;30.68;42.70;100577.48;1650225;87;21342;-56
2023/08/26 13:20:48;;;;;;;6.30;3.58;;;;;;;30.62;42.58;100568.20;1645569;87;21295;-55
2023/08/26 13:23:53;;;;;;;6.95;3.42;;;;;;;30.55;42.39;100568.31;1649812;87;22055;-55
2023/08/26 13:26:59;;;;;;;5.03;3.17;;;;;;;30.42;42.20;100567.64;1653404;86;21315;-55
2023/08/26 13:30:06;;;;;;;7.05;3.47;;;;;;;30.34;42.11;100562.65;1652468;85;21734;-55
2023/08/26 13:33:14;;;;;;;8.18;3.52;;;;;;;30.28;42.01;100564.72;1673023;85;21253;-56
2023/08/26 13:36:20;;;;;;;6.25;3.35;;;;;;;30.24;41.90;100562.20;1672206;86;21202;-56
2023/08/26 13:39:28;;;;;;;6.65;3.85;;;;;;;30.24;41.79;100558.56;1672155;86;21238;-57
2023/08/26 13:42:34;;;;;;;7.53;3.90;;;;;;;30.25;41.66;100545.55;1664178;86;21756;-56
2023/08/26 13:45:40;;;;;;;7.00;4.53;;;;;;;30.28;41.57;100540.70;1672374;86;21780;-56
2023/08/26 13:48:46;;;;;;;6.97;4.05;;;;;;;30.32;41.47;100539.50;1658644;86;21230;-56
2023/08/26 13:51:54;;;;;;;8.45;3.95;;;;;;;30.28;41.39;100537.88;1667082;85;21236;-56
2023/08/26 13:55:00;;;;;;;15.32;3.77;;;;;;;30.23;41.34;100536.52;1671876;85;21236;-56
2023/08/26 13:58:06;;;;;;;7.00;3.27;;;;;;;30.16;41.35;100528.94;1672391;86;21345;-56
2023/08/26 14:01:11;;;;;;;6.35;3.67;;;;;;;30.14;41.27;100538.30;1658717;84;21335;-56
2023/08/26 14:04:18;;;;;;;8.65;3.72;;;;;;;30.13;41.27;100522.48;1674013;84;21227;-55
2023/08/26 14:07:27;;;;;;;11.93;3.90;;;;;;;30.15;41.26;100523.59;1679933;84;21438;-56
2023/08/26 14:10:33;;;;;;;8.15;4.28;;;;;;;30.17;41.23;100524.98;1656205;86;21366;-56
2023/08/26 14:13:39;;;;;;;13.18;4.95;;;;;;;30.20;41.27;100520.14;1699594;84;21228;-56
2023/08/26 14:16:45;;;;;;;8.85;4.62;;;;;;;30.23;41.25;100511.09;1682727;84;21216;-56
2023/08/26 14:19:50;;;;;;;7.85;3.83;;;;;;;30.25;41.28;100505.99;1704018;82;21259;-56
2023/08/26 14:22:57;;;;;;;7.35;3.42;;;;;;;30.27;41.31;100507.10;1693515;84;21382;-56